sensor_id;sensor_type;location;lat;lon;timestamp;pressure;altitude;pressure_sealevel;temperature;humidity
74868;BME280;63419;42.262;12.210;2022-09-30T00:01:54;96420.66;;;17.41;100.00
74868;BME280;63419;42.262;12.210;2022-09-30T00:04:23;96426.25;;;17.22;100.00
74868;BME280;63419;42.262;12.210;2022-09-30T00:06:53;96422.63;;;17.39;100.00
74868;BME280;63419;42.262;12.210;2022-09-30T00:09:22;96428.88;;;17.13;100.00
74868;BME280;63419;42.262;12.210;2022-09-30T00:11:50;96434.22;;;17.28;100.00
74868;BME280;63419;42.262;12.210;2022-09-30T00:14:21;96438.66;;;16.95;100.00
74868;BME280;63419;42.262;12.210;2022-09-30T00:16:49;96436.41;;;16.92;100.00
74868;BME280;63419;42.262;12.210;2022-09-30T00:19:17;96425.81;;;16.85;100.00
74868;BME280;63419;42.262;12.210;2022-09-30T00:21:44;96414.56;;;17.01;100.00
74868;BME280;63419;42.262;12.210;2022-09-30T00:24:11;96425.63;;;16.79;100.00
74868;BME280;63419;42.262;12.210;2022-09-30T00:26:39;96421.72;;;16.74;100.00
74868;BME280;63419;42.262;12.210;2022-09-30T00:29:09;96431.31;;;16.49;100.00
74868;BME280;63419;42.262;12.210;2022-09-30T00:31:36;96427.25;;;16.80;100.00
74868;BME280;63419;42.262;12.210;2022-09-30T00:34:06;96420.25;;;17.05;100.00
74868;BME280;63419;42.262;12.210;2022-09-30T00:39:06;96435.06;;;17.21;100.00
74868;BME280;63419;42.262;12.210;2022-09-30T00:41:35;96444.44;;;17.46;100.00
74868;BME280;63419;42.262;12.210;2022-09-30T00:47:41;96446.13;;;17.31;100.00
74868;BME280;63419;42.262;12.210;2022-09-30T00:50:24;96443.31;;;17.41;100.00
74868;BME280;63419;42.262;12.210;2022-09-30T00:53:26;96454.84;;;17.55;100.00
74868;BME280;63419;42.262;12.210;2022-09-30T00:56:09;96457.13;;;17.58;100.00
74868;BME280;63419;42.262;12.210;2022-09-30T00:58:38;96460.66;;;17.73;100.00
74868;BME280;63419;42.262;12.210;2022-09-30T01:01:07;96465.25;;;17.63;100.00
74868;BME280;63419;42.262;12.210;2022-09-30T01:03:49;96474.16;;;17.85;100.00
74868;BME280;63419;42.262;12.210;2022-09-30T01:06:21;96483.81;;;17.76;100.00
74868;BME280;63419;42.262;12.210;2022-09-30T01:08:50;96487.44;;;16.52;100.00
74868;BME280;63419;42.262;12.210;2022-09-30T01:11:18;96483.59;;;16.72;100.00
74868;BME280;63419;42.262;12.210;2022-09-30T01:13:50;96492.38;;;17.45;100.00
74868;BME280;63419;42.262;12.210;2022-09-30T01:20:04;96494.19;;;17.37;100.00
74868;BME280;63419;42.262;12.210;2022-09-30T01:23:07;96482.63;;;17.15;100.00
74868;BME280;63419;42.262;12.210;2022-09-30T01:28:56;96488.91;;;15.87;100.00
74868;BME280;63419;42.262;12.210;2022-09-30T01:32:02;96479.28;;;15.79;100.00
74868;BME280;63419;42.262;12.210;2022-09-30T01:35:05;96486.00;;;15.38;100.00
74868;BME280;63419;42.262;12.210;2022-09-30T01:38:01;96479.31;;;15.61;100.00
74868;BME280;63419;42.262;12.210;2022-09-30T01:41:17;96466.28;;;15.53;100.00
74868;BME280;63419;42.262;12.210;2022-09-30T01:44:04;96459.78;;;15.57;100.00
74868;BME280;63419;42.262;12.210;2022-09-30T01:46:49;96458.19;;;15.65;100.00
74868;BME280;63419;42.262;12.210;2022-09-30T01:49:47;96447.03;;;15.72;100.00
74868;BME280;63419;42.262;12.210;2022-09-30T01:57:55;96430.03;;;15.86;100.00
74868;BME280;63419;42.262;12.210;2022-09-30T02:00:26;96441.28;;;15.87;100.00
74868;BME280;63419;42.262;12.210;2022-09-30T02:03:11;96422.53;;;15.75;100.00
74868;BME280;63419;42.262;12.210;2022-09-30T02:06:02;96413.81;;;15.92;100.00
74868;BME280;63419;42.262;12.210;2022-09-30T02:08:40;96425.13;;;15.75;100.00
74868;BME280;63419;42.262;12.210;2022-09-30T02:11:28;96434.34;;;16.12;100.00
74868;BME280;63419;42.262;12.210;2022-09-30T02:17:26;96431.06;;;16.02;100.00
74868;BME280;63419;42.262;12.210;2022-09-30T02:20:35;96430.41;;;15.99;100.00
74868;BME280;63419;42.262;12.210;2022-09-30T02:23:19;96417.25;;;16.01;100.00
74868;BME280;63419;42.262;12.210;2022-09-30T02:25:58;96419.97;;;15.83;100.00
74868;BME280;63419;42.262;12.210;2022-09-30T02:28:39;96426.38;;;15.71;100.00
74868;BME280;63419;42.262;12.210;2022-09-30T02:31:12;96432.63;;;15.78;100.00
74868;BME280;63419;42.262;12.210;2022-09-30T02:33:54;96431.31;;;15.82;100.00
74868;BME280;63419;42.262;12.210;2022-09-30T02:36:39;96426.69;;;16.10;100.00
74868;BME280;63419;42.262;12.210;2022-09-30T02:42:17;96428.16;;;16.05;100.00
74868;BME280;63419;42.262;12.210;2022-09-30T02:45:00;96425.56;;;16.21;100.00
74868;BME280;63419;42.262;12.210;2022-09-30T02:50:38;96418.91;;;16.18;100.00
74868;BME280;63419;42.262;12.210;2022-09-30T02:56:57;96426.38;;;16.13;100.00
74868;BME280;63419;42.262;12.210;2022-09-30T02:59:28;96424.78;;;16.37;100.00
74868;BME280;63419;42.262;12.210;2022-09-30T03:02:02;96413.72;;;16.27;100.00
74868;BME280;63419;42.262;12.210;2022-09-30T03:04:37;96420.06;;;16.32;100.00
74868;BME280;63419;42.262;12.210;2022-09-30T03:07:10;96423.97;;;16.45;100.00
74868;BME280;63419;42.262;12.210;2022-09-30T03:09:43;96428.38;;;16.44;100.00
74868;BME280;63419;42.262;12.210;2022-09-30T03:15:56;96423.78;;;16.22;100.00
74868;BME280;63419;42.262;12.210;2022-09-30T03:30:46;96439.13;;;16.33;100.00
74868;BME280;63419;42.262;12.210;2022-09-30T03:36:50;96452.22;;;15.72;100.00
74868;BME280;63419;42.262;12.210;2022-09-30T03:39:56;96432.63;;;15.86;100.00
74868;BME280;63419;42.262;12.210;2022-09-30T03:42:40;96430.41;;;15.99;100.00
74868;BME280;63419;42.262;12.210;2022-09-30T03:48:08;96452.41;;;16.13;100.00
74868;BME280;63419;42.262;12.210;2022-09-30T03:50:41;96454.97;;;16.05;100.00
74868;BME280;63419;42.262;12.210;2022-09-30T03:53:14;96438.22;;;16.08;100.00
74868;BME280;63419;42.262;12.210;2022-09-30T03:55:47;96428.56;;;15.84;100.00
74868;BME280;63419;42.262;12.210;2022-09-30T03:58:19;96431.22;;;16.00;100.00
74868;BME280;63419;42.262;12.210;2022-09-30T04:00:51;96431.22;;;15.66;100.00
74868;BME280;63419;42.262;12.210;2022-09-30T04:03:22;96430.97;;;15.77;100.00
74868;BME280;63419;42.262;12.210;2022-09-30T04:05:55;96436.22;;;15.85;100.00
74868;BME280;63419;42.262;12.210;2022-09-30T04:08:24;96444.22;;;16.00;100.00
74868;BME280;63419;42.262;12.210;2022-09-30T04:11:02;96442.97;;;16.12;100.00
74868;BME280;63419;42.262;12.210;2022-09-30T04:13:32;96440.69;;;16.17;100.00
74868;BME280;63419;42.262;12.210;2022-09-30T04:16:01;96447.44;;;15.86;100.00
74868;BME280;63419;42.262;12.210;2022-09-30T04:18:31;96442.88;;;15.53;100.00
74868;BME280;63419;42.262;12.210;2022-09-30T04:20:59;96438.34;;;15.55;100.00
74868;BME280;63419;42.262;12.210;2022-09-30T04:23:33;96429.59;;;15.04;100.00
74868;BME280;63419;42.262;12.210;2022-09-30T04:26:01;96436.97;;;15.43;100.00
74868;BME280;63419;42.262;12.210;2022-09-30T04:28:31;96431.97;;;15.50;100.00
74868;BME280;63419;42.262;12.210;2022-09-30T04:31:04;96430.59;;;15.37;100.00
74868;BME280;63419;42.262;12.210;2022-09-30T04:33:34;96434.06;;;15.46;100.00
74868;BME280;63419;42.262;12.210;2022-09-30T04:36:05;96436.44;;;15.66;100.00
74868;BME280;63419;42.262;12.210;2022-09-30T04:38:39;96438.56;;;15.36;100.00
74868;BME280;63419;42.262;12.210;2022-09-30T04:41:16;96447.13;;;15.54;100.00
74868;BME280;63419;42.262;12.210;2022-09-30T04:43:47;96452.84;;;16.01;100.00
74868;BME280;63419;42.262;12.210;2022-09-30T04:46:23;96450.84;;;15.86;100.00
74868;BME280;63419;42.262;12.210;2022-09-30T04:48:54;96455.03;;;15.79;100.00
74868;BME280;63419;42.262;12.210;2022-09-30T04:51:28;96457.88;;;15.68;100.00
74868;BME280;63419;42.262;12.210;2022-09-30T04:53:59;96455.25;;;15.59;100.00
74868;BME280;63419;42.262;12.210;2022-09-30T04:56:30;96459.06;;;15.39;100.00
74868;BME280;63419;42.262;12.210;2022-09-30T04:59:02;96445.53;;;15.70;100.00
74868;BME280;63419;42.262;12.210;2022-09-30T05:01:31;96433.53;;;15.69;100.00
74868;BME280;63419;42.262;12.210;2022-09-30T05:04:02;96439.13;;;15.56;100.00
74868;BME280;63419;42.262;12.210;2022-09-30T05:06:33;96437.88;;;15.60;100.00
74868;BME280;63419;42.262;12.210;2022-09-30T05:09:03;96442.88;;;15.88;100.00
74868;BME280;63419;42.262;12.210;2022-09-30T05:11:35;96447.28;;;15.87;100.00
74868;BME280;63419;42.262;12.210;2022-09-30T05:14:07;96448.81;;;15.72;100.00
74868;BME280;63419;42.262;12.210;2022-09-30T05:16:40;96450.38;;;15.91;100.00
74868;BME280;63419;42.262;12.210;2022-09-30T05:19:11;96463.34;;;15.83;100.00
74868;BME280;63419;42.262;12.210;2022-09-30T05:21:41;96474.06;;;15.79;100.00
74868;BME280;63419;42.262;12.210;2022-09-30T05:24:13;96474.75;;;15.90;100.00
74868;BME280;63419;42.262;12.210;2022-09-30T05:26:41;96475.44;;;15.66;100.00
74868;BME280;63419;42.262;12.210;2022-09-30T05:29:12;96468.28;;;15.68;100.00
74868;BME280;63419;42.262;12.210;2022-09-30T05:31:43;96475.34;;;15.49;100.00
74868;BME280;63419;42.262;12.210;2022-09-30T05:34:17;96476.69;;;15.53;100.00
74868;BME280;63419;42.262;12.210;2022-09-30T05:36:51;96466.97;;;15.64;100.00
74868;BME280;63419;42.262;12.210;2022-09-30T05:39:21;96477.38;;;15.64;100.00
74868;BME280;63419;42.262;12.210;2022-09-30T05:41:55;96472.31;;;15.88;100.00
74868;BME280;63419;42.262;12.210;2022-09-30T05:44:26;96474.97;;;16.05;100.00
74868;BME280;63419;42.262;12.210;2022-09-30T05:46:57;96472.16;;;15.90;100.00
74868;BME280;63419;42.262;12.210;2022-09-30T05:49:32;96475.63;;;16.07;100.00
74868;BME280;63419;42.262;12.210;2022-09-30T05:52:05;96488.38;;;16.34;100.00
74868;BME280;63419;42.262;12.210;2022-09-30T05:54:35;96493.94;;;16.31;100.00
74868;BME280;63419;42.262;12.210;2022-09-30T05:57:04;96497.25;;;16.58;100.00
74868;BME280;63419;42.262;12.210;2022-09-30T05:59:36;96494.47;;;16.60;100.00
74868;BME280;63419;42.262;12.210;2022-09-30T06:02:05;96498.41;;;16.72;100.00
74868;BME280;63419;42.262;12.210;2022-09-30T06:04:36;96497.94;;;16.85;100.00
74868;BME280;63419;42.262;12.210;2022-09-30T06:07:06;96494.84;;;16.98;100.00
74868;BME280;63419;42.262;12.210;2022-09-30T06:09:36;96486.38;;;17.20;100.00
74868;BME280;63419;42.262;12.210;2022-09-30T06:12:08;96492.56;;;17.11;100.00
74868;BME280;63419;42.262;12.210;2022-09-30T06:14:39;96491.41;;;17.22;100.00
74868;BME280;63419;42.262;12.210;2022-09-30T06:17:08;96490.28;;;17.24;100.00
74868;BME280;63419;42.262;12.210;2022-09-30T06:19:38;96490.56;;;17.54;100.00
74868;BME280;63419;42.262;12.210;2022-09-30T06:22:10;96492.84;;;17.49;100.00
74868;BME280;63419;42.262;12.210;2022-09-30T06:24:41;96495.69;;;17.79;100.00
74868;BME280;63419;42.262;12.210;2022-09-30T06:27:12;96485.25;;;17.79;100.00
74868;BME280;63419;42.262;12.210;2022-09-30T06:29:41;96484.00;;;18.14;100.00
74868;BME280;63419;42.262;12.210;2022-09-30T06:32:14;96497.69;;;18.16;100.00
74868;BME280;63419;42.262;12.210;2022-09-30T06:34:45;96499.25;;;18.34;100.00
74868;BME280;63419;42.262;12.210;2022-09-30T06:37:16;96505.78;;;18.38;100.00
74868;BME280;63419;42.262;12.210;2022-09-30T06:39:49;96515.06;;;18.40;100.00
74868;BME280;63419;42.262;12.210;2022-09-30T06:42:25;96520.47;;;18.62;100.00
74868;BME280;63419;42.262;12.210;2022-09-30T06:44:53;96525.09;;;18.52;100.00
74868;BME280;63419;42.262;12.210;2022-09-30T06:47:23;96521.56;;;18.68;100.00
74868;BME280;63419;42.262;12.210;2022-09-30T06:49:53;96529.91;;;18.94;100.00
74868;BME280;63419;42.262;12.210;2022-09-30T06:52:28;96525.41;;;18.88;100.00
74868;BME280;63419;42.262;12.210;2022-09-30T06:54:59;96521.25;;;18.71;100.00
74868;BME280;63419;42.262;12.210;2022-09-30T06:57:28;96518.00;;;18.69;100.00
74868;BME280;63419;42.262;12.210;2022-09-30T06:59:59;96522.41;;;19.14;100.00
74868;BME280;63419;42.262;12.210;2022-09-30T07:02:27;96532.78;;;19.60;100.00
74868;BME280;63419;42.262;12.210;2022-09-30T07:04:55;96549.94;;;19.63;100.00
74868;BME280;63419;42.262;12.210;2022-09-30T07:07:23;96545.31;;;19.88;100.00
74868;BME280;63419;42.262;12.210;2022-09-30T07:09:55;96558.78;;;20.00;100.00
74868;BME280;63419;42.262;12.210;2022-09-30T07:12:31;96566.97;;;19.97;100.00
74868;BME280;63419;42.262;12.210;2022-09-30T07:15:03;96571.38;;;19.44;100.00
74868;BME280;63419;42.262;12.210;2022-09-30T07:17:39;96560.41;;;20.16;100.00
74868;BME280;63419;42.262;12.210;2022-09-30T07:20:11;96579.72;;;20.00;100.00
74868;BME280;63419;42.262;12.210;2022-09-30T07:22:42;96588.78;;;20.64;100.00
74868;BME280;63419;42.262;12.210;2022-09-30T07:25:14;96590.72;;;20.91;100.00
74868;BME280;63419;42.262;12.210;2022-09-30T07:27:47;96597.09;;;20.82;100.00
74868;BME280;63419;42.262;12.210;2022-09-30T07:30:20;96613.56;;;20.46;100.00
74868;BME280;63419;42.262;12.210;2022-09-30T07:32:55;96620.06;;;20.80;100.00
74868;BME280;63419;42.262;12.210;2022-09-30T07:35:38;96625.09;;;21.18;100.00
74868;BME280;63419;42.262;12.210;2022-09-30T07:38:06;96634.44;;;21.06;100.00
74868;BME280;63419;42.262;12.210;2022-09-30T07:40:36;96639.56;;;20.03;100.00
74868;BME280;63419;42.262;12.210;2022-09-30T07:43:04;96644.81;;;20.18;100.00
74868;BME280;63419;42.262;12.210;2022-09-30T07:45:32;96638.31;;;20.29;100.00
74868;BME280;63419;42.262;12.210;2022-09-30T07:48:03;96643.63;;;20.21;100.00
74868;BME280;63419;42.262;12.210;2022-09-30T07:50:53;96653.09;;;19.92;100.00
74868;BME280;63419;42.262;12.210;2022-09-30T07:53:25;96666.69;;;20.25;100.00
74868;BME280;63419;42.262;12.210;2022-09-30T07:55:55;96678.94;;;19.49;100.00
74868;BME280;63419;42.262;12.210;2022-09-30T07:58:23;96679.06;;;20.46;100.00
74868;BME280;63419;42.262;12.210;2022-09-30T08:00:50;96676.00;;;20.87;100.00
74868;BME280;63419;42.262;12.210;2022-09-30T08:03:20;96678.72;;;21.74;100.00
74868;BME280;63419;42.262;12.210;2022-09-30T08:05:51;96691.91;;;21.80;100.00
74868;BME280;63419;42.262;12.210;2022-09-30T08:08:20;96692.59;;;21.67;100.00
74868;BME280;63419;42.262;12.210;2022-09-30T08:10:47;96700.25;;;22.40;100.00
74868;BME280;63419;42.262;12.210;2022-09-30T08:13:17;96704.81;;;23.02;100.00
74868;BME280;63419;42.262;12.210;2022-09-30T08:15:48;96709.53;;;23.13;100.00
74868;BME280;63419;42.262;12.210;2022-09-30T08:18:19;96713.00;;;22.43;100.00
74868;BME280;63419;42.262;12.210;2022-09-30T08:20:50;96716.22;;;20.50;100.00
74868;BME280;63419;42.262;12.210;2022-09-30T08:23:18;96720.16;;;20.16;100.00
74868;BME280;63419;42.262;12.210;2022-09-30T08:25:46;96723.53;;;20.69;100.00
74868;BME280;63419;42.262;12.210;2022-09-30T08:28:15;96726.09;;;20.25;100.00
74868;BME280;63419;42.262;12.210;2022-09-30T08:30:47;96727.44;;;20.06;100.00
74868;BME280;63419;42.262;12.210;2022-09-30T08:33:17;96729.00;;;19.37;100.00
74868;BME280;63419;42.262;12.210;2022-09-30T08:35:46;96721.25;;;19.21;100.00
74868;BME280;63419;42.262;12.210;2022-09-30T08:38:14;96714.06;;;19.23;100.00
74868;BME280;63419;42.262;12.210;2022-09-30T08:44:32;96701.38;;;20.57;100.00
74868;BME280;63419;42.262;12.210;2022-09-30T08:47:49;96704.38;;;20.69;100.00
74868;BME280;63419;42.262;12.210;2022-09-30T08:50:48;96692.19;;;20.46;100.00
74868;BME280;63419;42.262;12.210;2022-09-30T08:53:33;96692.53;;;19.90;100.00
74868;BME280;63419;42.262;12.210;2022-09-30T08:56:11;96691.66;;;19.75;100.00
74868;BME280;63419;42.262;12.210;2022-09-30T08:58:45;96681.13;;;19.83;100.00
74868;BME280;63419;42.262;12.210;2022-09-30T09:01:19;96684.56;;;20.37;100.00
74868;BME280;63419;42.262;12.210;2022-09-30T09:03:52;96674.81;;;19.77;100.00
74868;BME280;63419;42.262;12.210;2022-09-30T09:06:33;96665.13;;;20.46;100.00
74868;BME280;63419;42.262;12.210;2022-09-30T09:09:38;96651.41;;;20.73;100.00
74868;BME280;63419;42.262;12.210;2022-09-30T09:12:25;96650.78;;;20.27;100.00
74868;BME280;63419;42.262;12.210;2022-09-30T09:20:58;96660.97;;;19.46;100.00
74868;BME280;63419;42.262;12.210;2022-09-30T09:23:31;96658.59;;;19.05;100.00
74868;BME280;63419;42.262;12.210;2022-09-30T09:26:03;96633.28;;;18.65;100.00
74868;BME280;63419;42.262;12.210;2022-09-30T09:31:21;96600.16;;;18.97;100.00
74868;BME280;63419;42.262;12.210;2022-09-30T09:34:09;96584.94;;;19.24;100.00
74868;BME280;63419;42.262;12.210;2022-09-30T09:48:15;96596.00;;;20.77;100.00
74868;BME280;63419;42.262;12.210;2022-09-30T09:51:36;96592.44;;;20.33;100.00
74868;BME280;63419;42.262;12.210;2022-09-30T09:53:57;96579.56;;;19.78;100.00
74868;BME280;63419;42.262;12.210;2022-09-30T09:56:32;96585.84;;;19.69;100.00
74868;BME280;63419;42.262;12.210;2022-09-30T09:59:15;96593.50;;;19.79;100.00
74868;BME280;63419;42.262;12.210;2022-09-30T10:01:52;96578.94;;;19.38;100.00
74868;BME280;63419;42.262;12.210;2022-09-30T10:04:30;96587.19;;;19.73;100.00
74868;BME280;63419;42.262;12.210;2022-09-30T10:07:13;96592.59;;;20.02;100.00
74868;BME280;63419;42.262;12.210;2022-09-30T10:09:42;96599.66;;;20.01;100.00
74868;BME280;63419;42.262;12.210;2022-09-30T10:15:04;96605.94;;;20.81;100.00
74868;BME280;63419;42.262;12.210;2022-09-30T10:17:42;96615.19;;;20.17;100.00
74868;BME280;63419;42.262;12.210;2022-09-30T10:20:35;96616.53;;;20.43;100.00
74868;BME280;63419;42.262;12.210;2022-09-30T10:24:00;96609.31;;;20.45;100.00
74868;BME280;63419;42.262;12.210;2022-09-30T10:26:28;96632.34;;;21.16;100.00
74868;BME280;63419;42.262;12.210;2022-09-30T10:29:08;96637.19;;;21.19;100.00
74868;BME280;63419;42.262;12.210;2022-09-30T10:31:51;96633.44;;;21.07;100.00
74868;BME280;63419;42.262;12.210;2022-09-30T10:34:30;96665.72;;;19.88;100.00
74868;BME280;63419;42.262;12.210;2022-09-30T10:37:28;96679.50;;;18.65;100.00
74868;BME280;63419;42.262;12.210;2022-09-30T10:40:11;96660.31;;;18.89;100.00
74868;BME280;63419;42.262;12.210;2022-09-30T10:42:47;96636.91;;;19.73;100.00
74868;BME280;63419;42.262;12.210;2022-09-30T10:45:33;96642.69;;;19.84;100.00
74868;BME280;63419;42.262;12.210;2022-09-30T10:48:16;96631.25;;;19.38;100.00
74868;BME280;63419;42.262;12.210;2022-09-30T10:50:54;96637.06;;;19.49;100.00
74868;BME280;63419;42.262;12.210;2022-09-30T10:53:46;96640.72;;;19.86;100.00
74868;BME280;63419;42.262;12.210;2022-09-30T10:56:42;96660.47;;;19.73;100.00
74868;BME280;63419;42.262;12.210;2022-09-30T10:59:26;96666.19;;;19.46;100.00
74868;BME280;63419;42.262;12.210;2022-09-30T11:02:45;96651.50;;;21.17;100.00
74868;BME280;63419;42.262;12.210;2022-09-30T11:05:25;96661.28;;;22.51;100.00
74868;BME280;63419;42.262;12.210;2022-09-30T11:11:11;96709.53;;;22.71;100.00
74868;BME280;63419;42.262;12.210;2022-09-30T11:16:59;96729.56;;;25.21;100.00
74868;BME280;63419;42.262;12.210;2022-09-30T11:20:06;96739.75;;;26.19;100.00
74868;BME280;63419;42.262;12.210;2022-09-30T11:23:03;96759.38;;;24.69;100.00
74868;BME280;63419;42.262;12.210;2022-09-30T11:25:48;96769.91;;;22.58;100.00
74868;BME280;63419;42.262;12.210;2022-09-30T11:29:05;96773.41;;;21.94;100.00
74868;BME280;63419;42.262;12.210;2022-09-30T11:32:29;96782.13;;;20.91;100.00
74868;BME280;63419;42.262;12.210;2022-09-30T11:40:36;96772.16;;;21.46;100.00
74868;BME280;63419;42.262;12.210;2022-09-30T11:44:00;96777.41;;;21.68;100.00
74868;BME280;63419;42.262;12.210;2022-09-30T11:58:22;96809.69;;;21.32;100.00
74868;BME280;63419;42.262;12.210;2022-09-30T12:01:23;96813.31;;;20.86;100.00
74868;BME280;63419;42.262;12.210;2022-09-30T12:06:54;96810.19;;;22.65;100.00
74868;BME280;63419;42.262;12.210;2022-09-30T12:09:43;96830.31;;;24.11;100.00
74868;BME280;63419;42.262;12.210;2022-09-30T12:12:16;96818.47;;;25.40;100.00
74868;BME280;63419;42.262;12.210;2022-09-30T12:14:52;96821.63;;;24.91;100.00
74868;BME280;63419;42.262;12.210;2022-09-30T12:17:32;96814.50;;;24.98;100.00
74868;BME280;63419;42.262;12.210;2022-09-30T12:20:40;96829.06;;;26.17;100.00
74868;BME280;63419;42.262;12.210;2022-09-30T12:23:31;96822.63;;;26.64;100.00
74868;BME280;63419;42.262;12.210;2022-09-30T12:26:02;96831.53;;;24.02;100.00
74868;BME280;63419;42.262;12.210;2022-09-30T12:47:56;96840.84;;;25.04;100.00
74868;BME280;63419;42.262;12.210;2022-09-30T12:50:32;96832.06;;;25.44;100.00
74868;BME280;63419;42.262;12.210;2022-09-30T12:53:37;96851.28;;;23.29;100.00
74868;BME280;63419;42.262;12.210;2022-09-30T12:56:14;96847.25;;;25.49;100.00
74868;BME280;63419;42.262;12.210;2022-09-30T12:58:50;96840.25;;;26.45;100.00
74868;BME280;63419;42.262;12.210;2022-09-30T13:01:30;96838.47;;;26.38;100.00
74868;BME280;63419;42.262;12.210;2022-09-30T13:09:17;96848.97;;;22.13;100.00
74868;BME280;63419;42.262;12.210;2022-09-30T13:19:50;96849.84;;;24.63;100.00
74868;BME280;63419;42.262;12.210;2022-09-30T13:25:15;96847.47;;;26.56;100.00
74868;BME280;63419;42.262;12.210;2022-09-30T13:27:51;96847.41;;;25.67;100.00
74868;BME280;63419;42.262;12.210;2022-09-30T13:35:49;96833.16;;;26.13;100.00
74868;BME280;63419;42.262;12.210;2022-09-30T13:38:35;96837.47;;;25.56;100.00
74868;BME280;63419;42.262;12.210;2022-09-30T13:41:20;96850.88;;;23.74;100.00
74868;BME280;63419;42.262;12.210;2022-09-30T13:44:53;96846.59;;;26.12;100.00
74868;BME280;63419;42.262;12.210;2022-09-30T13:50:59;96856.25;;;25.34;100.00
74868;BME280;63419;42.262;12.210;2022-09-30T13:53:49;96855.88;;;25.11;100.00
74868;BME280;63419;42.262;12.210;2022-09-30T13:56:31;96864.22;;;23.72;100.00
74868;BME280;63419;42.262;12.210;2022-09-30T14:11:41;96873.63;;;23.40;100.00
74868;BME280;63419;42.262;12.210;2022-09-30T14:23:16;96870.06;;;24.16;100.00
74868;BME280;63419;42.262;12.210;2022-09-30T14:29:00;96874.53;;;22.91;100.00
74868;BME280;63419;42.262;12.210;2022-09-30T14:31:47;96882.72;;;22.31;100.00
74868;BME280;63419;42.262;12.210;2022-09-30T14:34:28;96892.03;;;21.61;100.00
74868;BME280;63419;42.262;12.210;2022-09-30T14:37:00;96900.69;;;21.76;100.00
74868;BME280;63419;42.262;12.210;2022-09-30T14:39:37;96907.38;;;22.30;100.00
74868;BME280;63419;42.262;12.210;2022-09-30T14:42:28;96905.06;;;22.42;100.00
74868;BME280;63419;42.262;12.210;2022-09-30T14:45:02;96895.88;;;23.79;100.00
74868;BME280;63419;42.262;12.210;2022-09-30T14:47:51;96907.72;;;22.70;100.00
74868;BME280;63419;42.262;12.210;2022-09-30T14:50:35;96916.59;;;22.26;100.00
74868;BME280;63419;42.262;12.210;2022-09-30T14:53:24;96903.41;;;23.47;100.00
74868;BME280;63419;42.262;12.210;2022-09-30T14:55:56;96896.72;;;23.86;100.00
74868;BME280;63419;42.262;12.210;2022-09-30T14:58:30;96895.13;;;23.92;100.00
74868;BME280;63419;42.262;12.210;2022-09-30T15:01:15;96909.38;;;22.71;100.00
74868;BME280;63419;42.262;12.210;2022-09-30T15:04:18;96911.00;;;21.93;100.00
74868;BME280;63419;42.262;12.210;2022-09-30T15:06:54;96921.63;;;21.70;100.00
74868;BME280;63419;42.262;12.210;2022-09-30T15:09:33;96916.38;;;22.86;100.00
74868;BME280;63419;42.262;12.210;2022-09-30T15:14:57;96934.94;;;21.00;100.00
74868;BME280;63419;42.262;12.210;2022-09-30T15:17:35;96942.28;;;21.05;100.00
74868;BME280;63419;42.262;12.210;2022-09-30T15:20:31;96938.34;;;21.68;100.00
74868;BME280;63419;42.262;12.210;2022-09-30T15:23:12;96939.69;;;21.35;100.00
74868;BME280;63419;42.262;12.210;2022-09-30T15:25:44;96933.25;;;22.33;100.00
74868;BME280;63419;42.262;12.210;2022-09-30T15:28:14;96927.34;;;22.46;100.00
74868;BME280;63419;42.262;12.210;2022-09-30T15:30:44;96919.13;;;24.10;100.00
74868;BME280;63419;42.262;12.210;2022-09-30T15:33:22;96921.28;;;24.62;100.00
74868;BME280;63419;42.262;12.210;2022-09-30T15:36:04;96916.59;;;24.57;100.00
74868;BME280;63419;42.262;12.210;2022-09-30T15:38:36;96931.84;;;22.52;100.00
74868;BME280;63419;42.262;12.210;2022-09-30T15:41:10;96923.81;;;22.82;100.00
74868;BME280;63419;42.262;12.210;2022-09-30T15:43:51;96926.00;;;22.78;100.00
74868;BME280;63419;42.262;12.210;2022-09-30T15:46:29;96927.56;;;21.93;100.00
74868;BME280;63419;42.262;12.210;2022-09-30T15:50:00;96929.59;;;21.46;100.00
74868;BME280;63419;42.262;12.210;2022-09-30T15:52:41;96932.78;;;21.04;100.00
74868;BME280;63419;42.262;12.210;2022-09-30T15:55:41;96937.53;;;21.53;100.00
74868;BME280;63419;42.262;12.210;2022-09-30T15:58:37;96943.19;;;20.74;100.00
74868;BME280;63419;42.262;12.210;2022-09-30T16:01:38;96954.41;;;20.68;100.00
74868;BME280;63419;42.262;12.210;2022-09-30T16:06:59;96939.53;;;21.51;100.00
74868;BME280;63419;42.262;12.210;2022-09-30T16:09:50;96940.44;;;21.58;100.00
74868;BME280;63419;42.262;12.210;2022-09-30T16:12:31;96937.03;;;21.05;100.00
74868;BME280;63419;42.262;12.210;2022-09-30T16:15:17;96915.97;;;21.13;100.00
74868;BME280;63419;42.262;12.210;2022-09-30T16:17:49;96921.41;;;21.26;100.00
74868;BME280;63419;42.262;12.210;2022-09-30T16:20:24;96931.41;;;20.47;100.00
74868;BME280;63419;42.262;12.210;2022-09-30T16:22:56;96937.59;;;20.77;100.00
74868;BME280;63419;42.262;12.210;2022-09-30T16:25:33;96935.66;;;20.48;100.00
74868;BME280;63419;42.262;12.210;2022-09-30T16:28:14;96933.97;;;20.32;100.00
74868;BME280;63419;42.262;12.210;2022-09-30T16:30:48;96948.66;;;20.41;100.00
74868;BME280;63419;42.262;12.210;2022-09-30T16:33:19;96938.09;;;20.49;100.00
74868;BME280;63419;42.262;12.210;2022-09-30T16:35:50;96931.78;;;20.67;100.00
74868;BME280;63419;42.262;12.210;2022-09-30T16:38:23;96928.47;;;20.73;100.00